sensor_id;sensor_type;location;lat;lon;timestamp;pressure;altitude;pressure_sealevel;temperature;humidity
54270;BME280;40181;51.560;13.000;2022-12-18T00:01:42;102367.66;;;-5.03;100.00
54270;BME280;40181;51.560;13.000;2022-12-18T00:04:20;102363.06;;;-5.14;100.00
54270;BME280;40181;51.560;13.000;2022-12-18T00:06:50;102365.19;;;-5.10;100.00
54270;BME280;40181;51.560;13.000;2022-12-18T00:09:19;102364.50;;;-5.00;100.00
54270;BME280;40181;51.560;13.000;2022-12-18T00:11:51;102369.31;;;-5.03;100.00
54270;BME280;40181;51.560;13.000;2022-12-18T00:14:21;102367.16;;;-5.07;100.00
54270;BME280;40181;51.560;13.000;2022-12-18T00:16:50;102378.91;;;-5.09;100.00
54270;BME280;40181;51.560;13.000;2022-12-18T00:19:19;102384.25;;;-5.40;100.00
54270;BME280;40181;51.560;13.000;2022-12-18T00:21:48;102383.47;;;-5.23;100.00
54270;BME280;40181;51.560;13.000;2022-12-18T00:24:17;102384.97;;;-5.25;100.00
54270;BME280;40181;51.560;13.000;2022-12-18T00:26:47;102384.66;;;-5.28;100.00
54270;BME280;40181;51.560;13.000;2022-12-18T00:29:18;102381.16;;;-5.29;100.00
54270;BME280;40181;51.560;13.000;2022-12-18T00:31:48;102378.69;;;-5.36;100.00
54270;BME280;40181;51.560;13.000;2022-12-18T00:34:17;102374.66;;;-5.34;100.00
54270;BME280;40181;51.560;13.000;2022-12-18T00:36:47;102368.78;;;-5.33;100.00
54270;BME280;40181;51.560;13.000;2022-12-18T00:39:16;102373.47;;;-5.29;100.00
54270;BME280;40181;51.560;13.000;2022-12-18T00:41:46;102367.38;;;-5.38;100.00
54270;BME280;40181;51.560;13.000;2022-12-18T00:44:30;102381.63;;;-5.49;100.00
54270;BME280;40181;51.560;13.000;2022-12-18T00:46:59;102384.06;;;-5.42;100.00
54270;BME280;40181;51.560;13.000;2022-12-18T00:49:28;102376.22;;;-5.59;100.00
54270;BME280;40181;51.560;13.000;2022-12-18T00:51:58;102383.81;;;-5.84;100.00
54270;BME280;40181;51.560;13.000;2022-12-18T00:54:27;102389.09;;;-5.83;100.00
54270;BME280;40181;51.560;13.000;2022-12-18T00:56:56;102386.06;;;-5.71;100.00
54270;BME280;40181;51.560;13.000;2022-12-18T00:59:25;102390.88;;;-5.58;100.00
54270;BME280;40181;51.560;13.000;2022-12-18T01:01:57;102398.56;;;-5.81;100.00
54270;BME280;40181;51.560;13.000;2022-12-18T01:04:27;102401.22;;;-5.89;100.00
54270;BME280;40181;51.560;13.000;2022-12-18T01:06:56;102401.38;;;-5.87;100.00
54270;BME280;40181;51.560;13.000;2022-12-18T01:09:25;102411.31;;;-5.74;100.00
54270;BME280;40181;51.560;13.000;2022-12-18T01:11:54;102403.84;;;-5.96;100.00
54270;BME280;40181;51.560;13.000;2022-12-18T01:14:23;102408.97;;;-5.96;100.00
54270;BME280;40181;51.560;13.000;2022-12-18T01:16:53;102416.81;;;-6.11;100.00
54270;BME280;40181;51.560;13.000;2022-12-18T01:19:25;102407.00;;;-5.83;100.00
54270;BME280;40181;51.560;13.000;2022-12-18T01:21:54;102396.31;;;-6.11;100.00
54270;BME280;40181;51.560;13.000;2022-12-18T01:24:23;102399.06;;;-6.09;100.00
54270;BME280;40181;51.560;13.000;2022-12-18T01:26:53;102395.69;;;-6.01;100.00
54270;BME280;40181;51.560;13.000;2022-12-18T01:29:22;102393.56;;;-5.89;100.00
54270;BME280;40181;51.560;13.000;2022-12-18T01:31:54;102408.34;;;-6.26;100.00
54270;BME280;40181;51.560;13.000;2022-12-18T01:34:27;102412.59;;;-6.10;100.00
54270;BME280;40181;51.560;13.000;2022-12-18T01:36:56;102412.91;;;-6.23;100.00
54270;BME280;40181;51.560;13.000;2022-12-18T01:39:25;102419.69;;;-6.31;100.00
54270;BME280;40181;51.560;13.000;2022-12-18T01:41:55;102402.69;;;-6.07;100.00
54270;BME280;40181;51.560;13.000;2022-12-18T01:44:50;102413.25;;;-6.50;100.00
54270;BME280;40181;51.560;13.000;2022-12-18T01:47:30;102408.94;;;-6.59;100.00
54270;BME280;40181;51.560;13.000;2022-12-18T01:50:11;102420.72;;;-6.45;100.00
54270;BME280;40181;51.560;13.000;2022-12-18T01:52:44;102415.84;;;-6.27;100.00
54270;BME280;40181;51.560;13.000;2022-12-18T01:55:17;102418.28;;;-6.13;100.00
54270;BME280;40181;51.560;13.000;2022-12-18T01:57:48;102411.69;;;-6.34;100.00
54270;BME280;40181;51.560;13.000;2022-12-18T02:00:18;102418.09;;;-6.37;100.00
54270;BME280;40181;51.560;13.000;2022-12-18T02:02:49;102413.47;;;-6.26;100.00
54270;BME280;40181;51.560;13.000;2022-12-18T02:05:28;102410.09;;;-6.17;100.00
54270;BME280;40181;51.560;13.000;2022-12-18T02:08:08;102414.19;;;-6.27;100.00
54270;BME280;40181;51.560;13.000;2022-12-18T02:10:45;102414.44;;;-6.32;100.00
54270;BME280;40181;51.560;13.000;2022-12-18T02:13:23;102423.91;;;-6.55;100.00
54270;BME280;40181;51.560;13.000;2022-12-18T02:16:01;102437.78;;;-6.90;100.00
54270;BME280;40181;51.560;13.000;2022-12-18T02:18:36;102426.78;;;-6.51;100.00
54270;BME280;40181;51.560;13.000;2022-12-18T02:21:17;102419.03;;;-6.37;100.00
54270;BME280;40181;51.560;13.000;2022-12-18T02:23:56;102427.31;;;-6.23;100.00
54270;BME280;40181;51.560;13.000;2022-12-18T02:26:44;102431.69;;;-6.46;100.00
54270;BME280;40181;51.560;13.000;2022-12-18T02:29:18;102424.41;;;-6.50;100.00
54270;BME280;40181;51.560;13.000;2022-12-18T02:31:54;102438.44;;;-6.70;100.00
54270;BME280;40181;51.560;13.000;2022-12-18T02:34:28;102429.19;;;-6.84;100.00
54270;BME280;40181;51.560;13.000;2022-12-18T02:37:02;102434.25;;;-6.76;100.00
54270;BME280;40181;51.560;13.000;2022-12-18T02:39:36;102438.28;;;-6.78;100.00
54270;BME280;40181;51.560;13.000;2022-12-18T02:42:10;102431.66;;;-6.69;100.00
54270;BME280;40181;51.560;13.000;2022-12-18T02:44:45;102445.59;;;-6.82;100.00
54270;BME280;40181;51.560;13.000;2022-12-18T02:47:18;102438.34;;;-6.62;100.00
54270;BME280;40181;51.560;13.000;2022-12-18T02:49:55;102444.16;;;-6.56;100.00
54270;BME280;40181;51.560;13.000;2022-12-18T02:52:35;102445.34;;;-6.69;100.00
54270;BME280;40181;51.560;13.000;2022-12-18T02:55:18;102443.63;;;-6.91;100.00
54270;BME280;40181;51.560;13.000;2022-12-18T02:58:00;102442.53;;;-6.86;100.00
54270;BME280;40181;51.560;13.000;2022-12-18T03:00:37;102451.22;;;-7.22;99.63
54270;BME280;40181;51.560;13.000;2022-12-18T03:03:11;102467.25;;;-7.09;99.81
54270;BME280;40181;51.560;13.000;2022-12-18T03:05:47;102456.13;;;-7.16;99.61
54270;BME280;40181;51.560;13.000;2022-12-18T03:08:22;102460.34;;;-7.10;98.84
54270;BME280;40181;51.560;13.000;2022-12-18T03:10:56;102459.19;;;-7.04;98.37
54270;BME280;40181;51.560;13.000;2022-12-18T03:13:36;102451.31;;;-6.99;97.77
54270;BME280;40181;51.560;13.000;2022-12-18T03:16:11;102450.63;;;-7.05;96.96
54270;BME280;40181;51.560;13.000;2022-12-18T03:18:46;102452.44;;;-6.97;96.53
54270;BME280;40181;51.560;13.000;2022-12-18T03:21:20;102442.22;;;-6.97;96.06
54270;BME280;40181;51.560;13.000;2022-12-18T03:23:52;102454.06;;;-6.97;96.09
54270;BME280;40181;51.560;13.000;2022-12-18T03:26:25;102458.53;;;-7.18;95.89
54270;BME280;40181;51.560;13.000;2022-12-18T03:29:02;102462.19;;;-7.30;96.70
54270;BME280;40181;51.560;13.000;2022-12-18T03:31:35;102465.34;;;-7.47;97.46
54270;BME280;40181;51.560;13.000;2022-12-18T03:34:13;102473.59;;;-7.94;97.87
54270;BME280;40181;51.560;13.000;2022-12-18T03:36:45;102482.00;;;-7.73;98.57
54270;BME280;40181;51.560;13.000;2022-12-18T03:39:15;102469.03;;;-7.67;98.06
54270;BME280;40181;51.560;13.000;2022-12-18T03:41:47;102481.41;;;-7.48;97.61
54270;BME280;40181;51.560;13.000;2022-12-18T03:44:27;102485.44;;;-7.58;96.55
54270;BME280;40181;51.560;13.000;2022-12-18T03:47:06;102485.44;;;-7.58;96.64
54270;BME280;40181;51.560;13.000;2022-12-18T03:49:40;102482.53;;;-8.12;97.51
54270;BME280;40181;51.560;13.000;2022-12-18T03:52:20;102488.38;;;-7.91;97.57
54270;BME280;40181;51.560;13.000;2022-12-18T03:54:54;102485.44;;;-8.23;98.42
54270;BME280;40181;51.560;13.000;2022-12-18T03:57:26;102481.28;;;-8.01;98.74
54270;BME280;40181;51.560;13.000;2022-12-18T04:00:03;102479.59;;;-8.15;97.73
54270;BME280;40181;51.560;13.000;2022-12-18T04:02:34;102479.06;;;-7.98;97.50
54270;BME280;40181;51.560;13.000;2022-12-18T04:05:09;102479.97;;;-7.97;97.06
54270;BME280;40181;51.560;13.000;2022-12-18T04:07:40;102477.63;;;-7.96;96.55
54270;BME280;40181;51.560;13.000;2022-12-18T04:10:10;102485.97;;;-8.11;96.57
54270;BME280;40181;51.560;13.000;2022-12-18T04:12:41;102482.16;;;-8.00;96.01
54270;BME280;40181;51.560;13.000;2022-12-18T04:15:13;102489.63;;;-8.02;95.41
54270;BME280;40181;51.560;13.000;2022-12-18T04:17:47;102486.38;;;-8.08;95.27
54270;BME280;40181;51.560;13.000;2022-12-18T04:20:18;102479.78;;;-8.21;95.18
54270;BME280;40181;51.560;13.000;2022-12-18T04:22:47;102483.44;;;-8.18;95.08
54270;BME280;40181;51.560;13.000;2022-12-18T04:25:17;102487.09;;;-8.16;94.36
54270;BME280;40181;51.560;13.000;2022-12-18T04:27:46;102488.13;;;-8.29;94.07
54270;BME280;40181;51.560;13.000;2022-12-18T04:30:18;102498.50;;;-8.42;94.04
54270;BME280;40181;51.560;13.000;2022-12-18T04:32:47;102489.78;;;-8.29;94.13
54270;BME280;40181;51.560;13.000;2022-12-18T04:35:16;102486.88;;;-8.25;93.67
54270;BME280;40181;51.560;13.000;2022-12-18T04:37:45;102474.16;;;-8.32;92.89
54270;BME280;40181;51.560;13.000;2022-12-18T04:40:15;102471.78;;;-8.24;92.45
54270;BME280;40181;51.560;13.000;2022-12-18T04:42:44;102476.31;;;-8.36;91.86
54270;BME280;40181;51.560;13.000;2022-12-18T04:45:13;102473.00;;;-8.42;92.19
54270;BME280;40181;51.560;13.000;2022-12-18T04:47:45;102485.75;;;-8.35;91.84
54270;BME280;40181;51.560;13.000;2022-12-18T04:50:14;102466.84;;;-8.37;90.86
54270;BME280;40181;51.560;13.000;2022-12-18T04:52:43;102468.31;;;-8.31;90.48
54270;BME280;40181;51.560;13.000;2022-12-18T04:55:13;102469.75;;;-8.55;89.98
54270;BME280;40181;51.560;13.000;2022-12-18T04:57:42;102473.38;;;-8.46;90.00
54270;BME280;40181;51.560;13.000;2022-12-18T05:00:12;102482.28;;;-8.57;89.72
54270;BME280;40181;51.560;13.000;2022-12-18T05:02:45;102485.38;;;-8.45;89.52
54270;BME280;40181;51.560;13.000;2022-12-18T05:05:14;102478.66;;;-8.59;89.08
54270;BME280;40181;51.560;13.000;2022-12-18T05:07:44;102478.44;;;-8.75;89.41
54270;BME280;40181;51.560;13.000;2022-12-18T05:10:13;102496.28;;;-8.75;89.33
54270;BME280;40181;51.560;13.000;2022-12-18T05:12:42;102484.97;;;-8.70;88.95
54270;BME280;40181;51.560;13.000;2022-12-18T05:15:27;102497.56;;;-8.71;88.12
54270;BME280;40181;51.560;13.000;2022-12-18T05:18:00;102489.69;;;-8.80;88.01
54270;BME280;40181;51.560;13.000;2022-12-18T05:20:30;102495.44;;;-8.96;88.41
54270;BME280;40181;51.560;13.000;2022-12-18T05:22:59;102493.94;;;-9.08;88.64
54270;BME280;40181;51.560;13.000;2022-12-18T05:25:28;102494.69;;;-9.02;88.85
54270;BME280;40181;51.560;13.000;2022-12-18T05:27:57;102502.66;;;-9.06;88.08
54270;BME280;40181;51.560;13.000;2022-12-18T05:30:27;102493.16;;;-9.14;88.58
54270;BME280;40181;51.560;13.000;2022-12-18T05:32:58;102492.28;;;-9.15;87.72
54270;BME280;40181;51.560;13.000;2022-12-18T05:35:28;102504.75;;;-9.24;87.94
54270;BME280;40181;51.560;13.000;2022-12-18T05:37:57;102499.59;;;-9.38;87.81
54270;BME280;40181;51.560;13.000;2022-12-18T05:40:26;102502.72;;;-9.34;88.21
54270;BME280;40181;51.560;13.000;2022-12-18T05:42:55;102503.81;;;-9.32;88.12
54270;BME280;40181;51.560;13.000;2022-12-18T05:45:24;102513.63;;;-9.27;87.96
54270;BME280;40181;51.560;13.000;2022-12-18T05:47:54;102517.50;;;-9.51;87.91
54270;BME280;40181;51.560;13.000;2022-12-18T05:50:25;102520.63;;;-9.47;88.37
54270;BME280;40181;51.560;13.000;2022-12-18T05:52:54;102520.44;;;-9.48;88.11
54270;BME280;40181;51.560;13.000;2022-12-18T05:55:24;102525.75;;;-9.67;88.30
54270;BME280;40181;51.560;13.000;2022-12-18T05:57:53;102524.22;;;-9.52;88.33
54270;BME280;40181;51.560;13.000;2022-12-18T06:00:22;102530.16;;;-9.59;88.34
54270;BME280;40181;51.560;13.000;2022-12-18T06:02:52;102533.22;;;-9.89;88.40
54270;BME280;40181;51.560;13.000;2022-12-18T06:05:21;102529.88;;;-9.75;88.96
54270;BME280;40181;51.560;13.000;2022-12-18T06:07:53;102530.25;;;-9.92;88.58
54270;BME280;40181;51.560;13.000;2022-12-18T06:10:22;102523.13;;;-9.74;88.67
54270;BME280;40181;51.560;13.000;2022-12-18T06:12:51;102531.19;;;-9.91;88.40
54270;BME280;40181;51.560;13.000;2022-12-18T06:15:21;102541.50;;;-9.97;88.78
54270;BME280;40181;51.560;13.000;2022-12-18T06:17:50;102542.78;;;-9.93;88.73
54270;BME280;40181;51.560;13.000;2022-12-18T06:20:19;102542.91;;;-9.79;88.45
54270;BME280;40181;51.560;13.000;2022-12-18T06:22:51;102540.28;;;-9.86;88.39
54270;BME280;40181;51.560;13.000;2022-12-18T06:25:20;102540.88;;;-9.81;88.49
54270;BME280;40181;51.560;13.000;2022-12-18T06:27:50;102558.81;;;-9.87;88.74
54270;BME280;40181;51.560;13.000;2022-12-18T06:30:19;102558.06;;;-9.93;88.55
54270;BME280;40181;51.560;13.000;2022-12-18T06:32:49;102568.78;;;-10.09;88.98
54270;BME280;40181;51.560;13.000;2022-12-18T06:35:18;102565.22;;;-10.37;89.40
54270;BME280;40181;51.560;13.000;2022-12-18T06:37:47;102561.31;;;-10.48;90.25
54270;BME280;40181;51.560;13.000;2022-12-18T06:40:19;102558.00;;;-10.34;90.62
54270;BME280;40181;51.560;13.000;2022-12-18T06:42:48;102564.81;;;-10.40;90.63
54270;BME280;40181;51.560;13.000;2022-12-18T06:45:17;102559.03;;;-10.39;89.98
54270;BME280;40181;51.560;13.000;2022-12-18T06:47:47;102562.72;;;-10.17;89.70
54270;BME280;40181;51.560;13.000;2022-12-18T06:50:17;102566.41;;;-10.61;90.25
54270;BME280;40181;51.560;13.000;2022-12-18T06:52:46;102575.28;;;-10.64;91.11
54270;BME280;40181;51.560;13.000;2022-12-18T06:55:18;102564.47;;;-10.56;91.58
54270;BME280;40181;51.560;13.000;2022-12-18T06:57:47;102576.78;;;-10.59;91.81
54270;BME280;40181;51.560;13.000;2022-12-18T07:00:17;102580.69;;;-10.81;93.01
54270;BME280;40181;51.560;13.000;2022-12-18T07:02:46;102582.63;;;-10.86;94.08
54270;BME280;40181;51.560;13.000;2022-12-18T07:05:15;102585.66;;;-10.76;94.80
54270;BME280;40181;51.560;13.000;2022-12-18T07:07:45;102596.81;;;-10.94;95.45
54270;BME280;40181;51.560;13.000;2022-12-18T07:10:14;102587.97;;;-10.77;95.65
54270;BME280;40181;51.560;13.000;2022-12-18T07:12:46;102582.16;;;-10.63;96.00
54270;BME280;40181;51.560;13.000;2022-12-18T07:15:15;102582.88;;;-10.64;96.61
54270;BME280;40181;51.560;13.000;2022-12-18T07:17:45;102593.34;;;-10.43;96.99
54270;BME280;40181;51.560;13.000;2022-12-18T07:20:14;102598.41;;;-10.43;97.16
54270;BME280;40181;51.560;13.000;2022-12-18T07:22:43;102598.94;;;-10.25;97.36
54270;BME280;40181;51.560;13.000;2022-12-18T07:25:13;102596.78;;;-10.22;97.70
54270;BME280;40181;51.560;13.000;2022-12-18T07:27:44;102594.28;;;-10.02;98.20
54270;BME280;40181;51.560;13.000;2022-12-18T07:30:16;102604.81;;;-10.19;98.57
54270;BME280;40181;51.560;13.000;2022-12-18T07:32:45;102601.72;;;-10.03;98.77
54270;BME280;40181;51.560;13.000;2022-12-18T07:35:15;102602.09;;;-10.20;99.57
54270;BME280;40181;51.560;13.000;2022-12-18T07:37:47;102601.28;;;-9.93;99.95
54270;BME280;40181;51.560;13.000;2022-12-18T07:40:16;102597.69;;;-9.88;99.84
54270;BME280;40181;51.560;13.000;2022-12-18T07:42:48;102590.84;;;-9.82;100.00
54270;BME280;40181;51.560;13.000;2022-12-18T07:45:17;102591.97;;;-9.80;100.00
54270;BME280;40181;51.560;13.000;2022-12-18T07:47:46;102595.22;;;-9.81;100.00
54270;BME280;40181;51.560;13.000;2022-12-18T07:50:16;102578.44;;;-9.66;100.00
54270;BME280;40181;51.560;13.000;2022-12-18T07:52:45;102580.22;;;-9.72;100.00
54270;BME280;40181;51.560;13.000;2022-12-18T07:55:14;102585.44;;;-9.78;100.00
54270;BME280;40181;51.560;13.000;2022-12-18T07:57:44;102580.63;;;-9.69;100.00
54270;BME280;40181;51.560;13.000;2022-12-18T08:00:16;102585.06;;;-9.61;100.00
54270;BME280;40181;51.560;13.000;2022-12-18T08:02:46;102584.84;;;-9.62;100.00
54270;BME280;40181;51.560;13.000;2022-12-18T08:05:15;102586.72;;;-9.54;100.00
54270;BME280;40181;51.560;13.000;2022-12-18T08:07:45;102595.22;;;-9.40;100.00
54270;BME280;40181;51.560;13.000;2022-12-18T08:10:15;102591.88;;;-9.26;100.00
54270;BME280;40181;51.560;13.000;2022-12-18T08:12:44;102599.41;;;-9.13;100.00
54270;BME280;40181;51.560;13.000;2022-12-18T08:15:17;102602.00;;;-9.34;100.00
54270;BME280;40181;51.560;13.000;2022-12-18T08:17:46;102601.09;;;-9.07;100.00
54270;BME280;40181;51.560;13.000;2022-12-18T08:20:15;102608.31;;;-9.10;100.00
54270;BME280;40181;51.560;13.000;2022-12-18T08:22:45;102596.56;;;-9.02;100.00
54270;BME280;40181;51.560;13.000;2022-12-18T08:25:14;102601.72;;;-8.87;100.00
54270;BME280;40181;51.560;13.000;2022-12-18T08:27:43;102606.19;;;-8.72;100.00
54270;BME280;40181;51.560;13.000;2022-12-18T08:30:15;102616.97;;;-8.67;100.00
54270;BME280;40181;51.560;13.000;2022-12-18T08:32:45;102610.94;;;-8.75;100.00
54270;BME280;40181;51.560;13.000;2022-12-18T08:35:14;102615.91;;;-8.62;100.00
54270;BME280;40181;51.560;13.000;2022-12-18T08:37:44;102612.28;;;-8.50;100.00
54270;BME280;40181;51.560;13.000;2022-12-18T08:40:13;102617.16;;;-8.66;100.00
54270;BME280;40181;51.560;13.000;2022-12-18T08:42:42;102611.56;;;-8.49;100.00
54270;BME280;40181;51.560;13.000;2022-12-18T08:45:27;102612.47;;;-8.48;100.00
54270;BME280;40181;51.560;13.000;2022-12-18T08:47:56;102611.59;;;-8.41;100.00
54270;BME280;40181;51.560;13.000;2022-12-18T08:50:25;102624.91;;;-8.37;100.00
54270;BME280;40181;51.560;13.000;2022-12-18T08:52:55;102622.97;;;-8.17;100.00
54270;BME280;40181;51.560;13.000;2022-12-18T08:55:24;102623.16;;;-8.23;100.00
54270;BME280;40181;51.560;13.000;2022-12-18T08:57:53;102635.47;;;-8.41;100.00
54270;BME280;40181;51.560;13.000;2022-12-18T09:00:22;102637.00;;;-8.21;100.00
54270;BME280;40181;51.560;13.000;2022-12-18T09:02:54;102650.97;;;-8.32;100.00
54270;BME280;40181;51.560;13.000;2022-12-18T09:05:23;102643.22;;;-8.12;100.00
54270;BME280;40181;51.560;13.000;2022-12-18T09:07:52;102632.31;;;-8.03;100.00
54270;BME280;40181;51.560;13.000;2022-12-18T09:10:22;102650.34;;;-8.02;100.00
54270;BME280;40181;51.560;13.000;2022-12-18T09:12:51;102648.22;;;-7.92;100.00
54270;BME280;40181;51.560;13.000;2022-12-18T09:15:21;102641.06;;;-8.01;100.00
54270;BME280;40181;51.560;13.000;2022-12-18T09:17:50;102642.75;;;-7.87;100.00
54270;BME280;40181;51.560;13.000;2022-12-18T09:20:22;102637.84;;;-7.71;100.00
54270;BME280;40181;51.560;13.000;2022-12-18T09:22:53;102640.75;;;-7.83;100.00
54270;BME280;40181;51.560;13.000;2022-12-18T09:25:22;102650.19;;;-7.89;100.00
54270;BME280;40181;51.560;13.000;2022-12-18T09:27:57;102646.63;;;-7.69;100.00
54270;BME280;40181;51.560;13.000;2022-12-18T09:30:27;102634.22;;;-7.59;100.00
54270;BME280;40181;51.560;13.000;2022-12-18T09:33:01;102633.31;;;-7.52;100.00
54270;BME280;40181;51.560;13.000;2022-12-18T09:35:30;102631.84;;;-7.57;100.00
54270;BME280;40181;51.560;13.000;2022-12-18T09:37:59;102629.69;;;-7.47;100.00
54270;BME280;40181;51.560;13.000;2022-12-18T09:40:34;102621.28;;;-7.53;100.00
54270;BME280;40181;51.560;13.000;2022-12-18T09:43:04;102623.47;;;-7.64;100.00
54270;BME280;40181;51.560;13.000;2022-12-18T09:45:41;102620.53;;;-7.67;100.00
54270;BME280;40181;51.560;13.000;2022-12-18T09:48:19;102612.91;;;-7.52;100.00
54270;BME280;40181;51.560;13.000;2022-12-18T09:50:50;102607.59;;;-7.46;100.00
54270;BME280;40181;51.560;13.000;2022-12-18T09:53:24;102593.00;;;-7.62;100.00
54270;BME280;40181;51.560;13.000;2022-12-18T09:55:56;102598.28;;;-7.68;100.00
54270;BME280;40181;51.560;13.000;2022-12-18T09:58:28;102603.38;;;-7.68;100.00
54270;BME280;40181;51.560;13.000;2022-12-18T10:01:00;102588.06;;;-7.89;100.00
54270;BME280;40181;51.560;13.000;2022-12-18T10:03:31;102587.91;;;-7.69;100.00
54270;BME280;40181;51.560;13.000;2022-12-18T10:06:06;102582.97;;;-7.60;100.00
54270;BME280;40181;51.560;13.000;2022-12-18T10:08:43;102573.69;;;-7.67;100.00
54270;BME280;40181;51.560;13.000;2022-12-18T10:11:28;102575.50;;;-7.66;100.00
54270;BME280;40181;51.560;13.000;2022-12-18T10:14:09;102570.03;;;-7.55;100.00
54270;BME280;40181;51.560;13.000;2022-12-18T10:16:50;102565.47;;;-7.50;100.00
54270;BME280;40181;51.560;13.000;2022-12-18T10:19:36;102568.03;;;-7.50;100.00
54270;BME280;40181;51.560;13.000;2022-12-18T10:22:21;102559.47;;;-7.58;99.47
54270;BME280;40181;51.560;13.000;2022-12-18T10:25:02;102561.28;;;-7.57;99.60
54270;BME280;40181;51.560;13.000;2022-12-18T10:27:34;102552.19;;;-7.69;99.96
54270;BME280;40181;51.560;13.000;2022-12-18T10:30:13;102553.09;;;-7.54;100.00
54270;BME280;40181;51.560;13.000;2022-12-18T10:32:43;102542.34;;;-7.52;99.87
54270;BME280;40181;51.560;13.000;2022-12-18T10:35:18;102551.06;;;-7.50;99.50
54270;BME280;40181;51.560;13.000;2022-12-18T10:38:06;102544.13;;;-7.43;99.19
54270;BME280;40181;51.560;13.000;2022-12-18T10:40:50;102538.47;;;-7.26;99.12
54270;BME280;40181;51.560;13.000;2022-12-18T10:43:23;102530.81;;;-7.33;98.98
54270;BME280;40181;51.560;13.000;2022-12-18T10:46:03;102520.78;;;-7.32;99.90
54270;BME280;40181;51.560;13.000;2022-12-18T10:48:50;102528.97;;;-7.27;99.54
54270;BME280;40181;51.560;13.000;2022-12-18T10:51:26;102526.75;;;-7.17;99.43
54270;BME280;40181;51.560;13.000;2022-12-18T10:54:01;102530.75;;;-7.04;99.41
54270;BME280;40181;51.560;13.000;2022-12-18T10:56:35;102533.28;;;-6.97;98.99
54270;BME280;40181;51.560;13.000;2022-12-18T10:59:06;102528.34;;;-6.88;98.40
54270;BME280;40181;51.560;13.000;2022-12-18T11:01:49;102524.09;;;-6.81;97.82
54270;BME280;40181;51.560;13.000;2022-12-18T11:04:22;102526.38;;;-7.05;98.08
54270;BME280;40181;51.560;13.000;2022-12-18T11:06:57;102526.88;;;-6.86;98.01
54270;BME280;40181;51.560;13.000;2022-12-18T11:09:30;102522.09;;;-6.83;97.63
54270;BME280;40181;51.560;13.000;2022-12-18T11:12:03;102512.59;;;-6.84;97.68
54270;BME280;40181;51.560;13.000;2022-12-18T11:14:42;102515.56;;;-6.96;98.38
54270;BME280;40181;51.560;13.000;2022-12-18T11:17:19;102519.19;;;-6.79;98.40
54270;BME280;40181;51.560;13.000;2022-12-18T11:19:53;102513.94;;;-6.57;97.62
54270;BME280;40181;51.560;13.000;2022-12-18T11:22:27;102508.31;;;-6.62;97.25
54270;BME280;40181;51.560;13.000;2022-12-18T11:24:59;102504.19;;;-6.83;97.78
54270;BME280;40181;51.560;13.000;2022-12-18T11:27:31;102518.22;;;-6.72;97.57
54270;BME280;40181;51.560;13.000;2022-12-18T11:30:09;102515.50;;;-6.81;97.71
54270;BME280;40181;51.560;13.000;2022-12-18T11:32:51;102527.72;;;-6.71;98.00
54270;BME280;40181;51.560;13.000;2022-12-18T11:35:35;102532.19;;;-6.54;96.91
54270;BME280;40181;51.560;13.000;2022-12-18T11:38:18;102528.13;;;-6.45;96.79
54270;BME280;40181;51.560;13.000;2022-12-18T11:40:55;102530.91;;;-6.50;96.25
54270;BME280;40181;51.560;13.000;2022-12-18T11:43:29;102520.97;;;-6.40;96.30
54270;BME280;40181;51.560;13.000;2022-12-18T11:46:05;102528.31;;;-6.43;95.99
54270;BME280;40181;51.560;13.000;2022-12-18T11:48:41;102528.09;;;-6.37;95.96
54270;BME280;40181;51.560;13.000;2022-12-18T11:51:17;102519.63;;;-6.29;96.15
54270;BME280;40181;51.560;13.000;2022-12-18T11:53:54;102517.81;;;-6.30;95.94
54270;BME280;40181;51.560;13.000;2022-12-18T11:56:29;102520.44;;;-6.14;95.44
54270;BME280;40181;51.560;13.000;2022-12-18T11:59:08;102516.31;;;-6.21;95.56
54270;BME280;40181;51.560;13.000;2022-12-18T12:01:49;102524.53;;;-6.00;95.28
54270;BME280;40181;51.560;13.000;2022-12-18T12:04:36;102529.41;;;-5.94;94.88
54270;BME280;40181;51.560;13.000;2022-12-18T12:07:22;102530.28;;;-5.87;94.61
54270;BME280;40181;51.560;13.000;2022-12-18T12:10:13;102534.13;;;-5.83;94.59
54270;BME280;40181;51.560;13.000;2022-12-18T12:13:02;102532.28;;;-5.61;93.66
54270;BME280;40181;51.560;13.000;2022-12-18T12:16:02;102534.59;;;-5.55;92.80
54270;BME280;40181;51.560;13.000;2022-12-18T12:18:47;102533.88;;;-5.54;92.41
54270;BME280;40181;51.560;13.000;2022-12-18T12:21:27;102526.88;;;-5.48;92.05
54270;BME280;40181;51.560;13.000;2022-12-18T12:24:07;102525.25;;;-5.31;91.58
54270;BME280;40181;51.560;13.000;2022-12-18T12:26:56;102502.66;;;-5.43;91.79
54270;BME280;40181;51.560;13.000;2022-12-18T12:29:40;102502.25;;;-5.22;91.05
54270;BME280;40181;51.560;13.000;2022-12-18T12:32:25;102501.75;;;-5.27;90.88
54270;BME280;40181;51.560;13.000;2022-12-18T12:35:23;102496.56;;;-5.20;91.28
54270;BME280;40181;51.560;13.000;2022-12-18T12:38:05;102487.63;;;-5.39;91.61
54270;BME280;40181;51.560;13.000;2022-12-18T12:40:39;102483.66;;;-5.45;92.07
54270;BME280;40181;51.560;13.000;2022-12-18T12:43:22;102483.22;;;-5.41;92.47
54270;BME280;40181;51.560;13.000;2022-12-18T12:45:55;102488.69;;;-5.53;92.63
54270;BME280;40181;51.560;13.000;2022-12-18T12:48:40;102478.00;;;-5.65;93.32
54270;BME280;40181;51.560;13.000;2022-12-18T12:51:15;102470.75;;;-5.53;93.13
54270;BME280;40181;51.560;13.000;2022-12-18T12:53:46;102476.88;;;-5.44;93.02
54270;BME280;40181;51.560;13.000;2022-12-18T12:56:17;102477.53;;;-5.38;93.02
54270;BME280;40181;51.560;13.000;2022-12-18T12:58:57;102483.16;;;-5.49;93.00
54270;BME280;40181;51.560;13.000;2022-12-18T13:01:37;102483.56;;;-5.53;93.58
54270;BME280;40181;51.560;13.000;2022-12-18T13:04:18;102485.41;;;-5.36;93.29
54270;BME280;40181;51.560;13.000;2022-12-18T13:06:57;102489.84;;;-5.43;93.18